Saffell, Arkansas
Current Conditions -  °F | °C
As of 12:56 AM on Friday 28 Nov 2014 (Local Time) from KM19 Reporting Station
Clear Clear  
Wind Chill: 26°   Ceiling: Unl
Heat Index: 32°   Visibility: 10mi
Dew Point: 30°   Wind: 7mph
Humidity: 92%   Direction: 140°SE
Pressure: 30.43"   Gusts: NA
Location:  35.92°N, 91.29°W
Report Text: KM19 280656Z AUTO 14006KT 10SM CLR 00/M01 A3043 RMK AO2 T00001011 SLP304
Loading
Personal Weather Stations






























Interactive Weather Map New forecast layout! Learn more

10-Day Weather Forecast

Advertisements
Track Severe Weather on mobile